createdAt,value
2023-01-09T00:01:16.803Z,93994.63
2023-01-09T00:03:44.543Z,94003.09
2023-01-09T00:06:12.848Z,94003.91
2023-01-09T00:08:40.557Z,94001.06
2023-01-09T00:11:09.038Z,94014.38
2023-01-09T00:13:37.390Z,94013.97
2023-01-09T00:16:07.424Z,94017.59
2023-01-09T00:18:35.651Z,94015.19
2023-01-09T00:21:04.706Z,94006.31
2023-01-09T00:23:32.370Z,94004.09
2023-01-09T00:26:05.514Z,94015.19
2023-01-09T00:28:33.834Z,94012.38
2023-01-09T00:31:03.380Z,94007.75
2023-01-09T00:33:34.725Z,94014.00
2023-01-09T00:36:03.267Z,94016.41
2023-01-09T00:38:31.120Z,94025.47
2023-01-09T00:41:00.203Z,94021.03
2023-01-09T00:43:31.650Z,94018.81
2023-01-09T00:46:01.056Z,94025.47
2023-01-09T00:48:30.224Z,94027.06
2023-01-09T00:51:00.669Z,94023.63
2023-01-09T00:53:32.670Z,94015.41
2023-01-09T00:56:06.323Z,94009.97
2023-01-09T00:58:36.170Z,94005.94
2023-01-09T01:01:04.323Z,94009.75
2023-01-09T01:03:33.031Z,93999.09
2023-01-09T01:06:19.812Z,94005.53
2023-01-09T01:08:47.665Z,93995.06
2023-01-09T01:11:15.773Z,93989.03
2023-01-09T01:13:44.243Z,93977.72
2023-01-09T01:16:13.852Z,93983.38
2023-01-09T01:18:42.963Z,93992.06
2023-01-09T01:21:13.985Z,93985.38
2023-01-09T01:23:42.614Z,93983.38
2023-01-09T01:26:12.153Z,93973.50
2023-01-09T01:28:40.421Z,93967.66
2023-01-09T01:31:08.262Z,93969.47
2023-01-09T01:33:36.478Z,93974.91
2023-01-09T01:36:07.205Z,93980.94
2023-01-09T01:38:37.208Z,93980.97
2023-01-09T01:41:06.937Z,93969.25
2023-01-09T01:43:51.101Z,93961.22
2023-01-09T01:46:18.921Z,93961.63
2023-01-09T01:48:47.892Z,93966.22
2023-01-09T01:51:16.957Z,93971.69
2023-01-09T01:53:50.719Z,93968.47
2023-01-09T01:56:21.391Z,93959.78
2023-01-09T01:58:53.136Z,93965.44
2023-01-09T02:01:23.343Z,93969.28
2023-01-09T02:03:53.742Z,93962.81
2023-01-09T02:06:21.604Z,93966.63
2023-01-09T02:08:51.511Z,93957.16
2023-01-09T02:11:21.784Z,93955.94
2023-01-09T02:13:50.534Z,93964.78
2023-01-09T02:16:37.946Z,93959.97
2023-01-09T02:19:15.812Z,93964.56
2023-01-09T02:22:01.365Z,93952.69
2023-01-09T02:24:58.489Z,93957.94
2023-01-09T02:27:54.384Z,93941.97
2023-01-09T02:30:45.549Z,93946.59
2023-01-09T02:33:25.788Z,93948.22
2023-01-09T02:36:09.602Z,93949.47
2023-01-09T02:38:49.210Z,93940.75
2023-01-09T02:41:22.437Z,93943.78
2023-01-09T02:44:18.101Z,93950.22
2023-01-09T02:46:47.293Z,93934.53
2023-01-09T02:49:17.726Z,93936.53
2023-01-09T02:51:52.597Z,93941.78
2023-01-09T02:54:32.878Z,93940.19
2023-01-09T02:57:18.760Z,93931.31
2023-01-09T03:00:02.792Z,93929.72
2023-01-09T03:02:46.648Z,93930.50
2023-01-09T03:05:22.527Z,93927.09
2023-01-09T03:07:57.955Z,93934.53
2023-01-09T03:10:31.577Z,93939.41
2023-01-09T03:13:03.024Z,93945.25
2023-01-09T03:15:34.511Z,93935.75
2023-01-09T03:18:06.786Z,93943.03
2023-01-09T03:20:35.105Z,93940.19
2023-01-09T03:23:05.874Z,93955.97
2023-01-09T03:25:34.021Z,93953.31
2023-01-09T03:28:03.959Z,93957.53
2023-01-09T03:30:33.281Z,93963.59
2023-01-09T03:33:01.731Z,93955.13
2023-01-09T03:35:31.517Z,93966.84
2023-01-09T03:37:59.986Z,93955.53
2023-01-09T03:40:27.924Z,93962.38
2023-01-09T03:42:55.575Z,93957.53
2023-01-09T03:45:23.766Z,93972.88
2023-01-09T03:47:53.053Z,93985.19
2023-01-09T03:50:21.463Z,93988.56
2023-01-09T03:52:50.540Z,93985.75
2023-01-09T03:55:18.561Z,93992.16
2023-01-09T03:57:46.287Z,93996.22
2023-01-09T04:00:15.129Z,93997.03
2023-01-09T04:02:43.159Z,93997.03
2023-01-09T04:05:11.092Z,94001.78
2023-01-09T04:07:38.957Z,93999.16
2023-01-09T04:10:09.867Z,94011.91
2023-01-09T04:12:37.573Z,94010.31
2023-01-09T04:15:06.022Z,94015.94
2023-01-09T04:17:33.711Z,94024.91
2023-01-09T04:20:02.121Z,94043.09
2023-01-09T04:22:31.317Z,94048.72
2023-01-09T04:24:59.271Z,94067.50
2023-01-09T04:27:28.339Z,94076.56
2023-01-09T04:29:56.368Z,94070.53
2023-01-09T04:32:24.175Z,94091.94
2023-01-09T04:34:52.493Z,94078.22
2023-01-09T04:37:20.343Z,94083.66
2023-01-09T04:39:48.735Z,94084.25
2023-01-09T04:42:16.679Z,94093.97
2023-01-09T04:44:46.193Z,94095.53
2023-01-09T04:47:14.452Z,94107.88
2023-01-09T04:49:42.790Z,94095.75
2023-01-09T04:52:10.449Z,94118.78
2023-01-09T04:54:39.723Z,94121.78
2023-01-09T04:57:07.671Z,94126.66
2023-01-09T04:59:35.718Z,94133.91
2023-01-09T05:02:06.003Z,94133.91
2023-01-09T05:04:34.526Z,94130.25
2023-01-09T05:07:02.188Z,94137.13
2023-01-09T05:09:30.419Z,94118.94
2023-01-09T05:12:00.536Z,94125.81
2023-01-09T05:14:29.367Z,94129.03
2023-01-09T05:16:57.546Z,94128.44
2023-01-09T05:19:26.829Z,94143.13
2023-01-09T05:21:55.584Z,94131.25
2023-01-09T05:24:23.234Z,94133.47
2023-01-09T05:26:51.549Z,94144.78
2023-01-09T05:29:19.231Z,94154.06
2023-01-09T05:31:48.016Z,94136.09
2023-01-09T05:34:15.726Z,94147.44
2023-01-09T05:36:45.531Z,94169.78
2023-01-09T05:39:13.457Z,94168.97
2023-01-09T05:41:42.360Z,94168.34
2023-01-09T05:44:10.018Z,94166.56
2023-01-09T05:46:37.712Z,94181.47
2023-01-09T05:49:05.457Z,94189.41
2023-01-09T05:51:33.171Z,94193.31
2023-01-09T05:54:02.869Z,94191.47
2023-01-09T05:56:30.810Z,94185.81
2023-01-09T05:58:58.510Z,94190.47
2023-01-09T06:01:26.659Z,94211.50
2023-01-09T06:03:54.407Z,94204.50
2023-01-09T06:06:24.260Z,94195.84
2023-01-09T06:08:52.001Z,94218.97
2023-01-09T06:11:21.155Z,94207.13
2023-01-09T06:13:49.453Z,94205.06
2023-01-09T06:16:17.634Z,94216.94
2023-01-09T06:18:45.347Z,94217.59
2023-01-09T06:21:13.147Z,94224.47
2023-01-09T06:23:40.836Z,94245.03
2023-01-09T06:26:08.918Z,94218.78
2023-01-09T06:28:37.902Z,94222.91
2023-01-09T06:31:06.051Z,94250.66
2023-01-09T06:33:33.878Z,94261.44
2023-01-09T06:36:01.807Z,94260.69
2023-01-09T06:38:29.461Z,94259.44
2023-01-09T06:40:57.199Z,94284.69
2023-01-09T06:43:24.859Z,94288.47
2023-01-09T06:45:54.487Z,94315.00
2023-01-09T06:48:22.266Z,94320.88
2023-01-09T06:50:49.892Z,94340.75
2023-01-09T06:53:17.851Z,94346.06
2023-01-09T06:55:45.676Z,94345.69
2023-01-09T06:58:14.223Z,94345.97
2023-01-09T07:00:41.985Z,94353.25
2023-01-09T07:03:11.840Z,94351.28
2023-01-09T07:05:41.400Z,94354.06
2023-01-09T07:08:10.551Z,94359.16
2023-01-09T07:10:38.228Z,94347.53
2023-01-09T07:13:06.234Z,94354.06
2023-01-09T07:15:33.888Z,94361.84
2023-01-09T07:18:01.910Z,94370.41
2023-01-09T07:20:30.959Z,94371.66
2023-01-09T07:22:58.960Z,94373.03
2023-01-09T07:25:26.920Z,94383.78
2023-01-09T07:27:54.576Z,94387.53
2023-01-09T07:30:22.233Z,94400.69
2023-01-09T07:32:50.260Z,94416.53
2023-01-09T07:35:18.131Z,94403.91
2023-01-09T07:37:47.771Z,94415.63
2023-01-09T07:40:15.531Z,94422.28
2023-01-09T07:42:43.275Z,94424.81
2023-01-09T07:45:11.966Z,94432.66
2023-01-09T07:47:40.669Z,94438.22
2023-01-09T07:50:10.013Z,94426.75
2023-01-09T07:52:38.694Z,94415.59
2023-01-09T07:55:09.736Z,94426.06
2023-01-09T07:57:37.716Z,94426.31
2023-01-09T08:00:06.951Z,94430.00
2023-01-09T08:02:40.648Z,94438.66
2023-01-09T08:05:13.631Z,94445.97
2023-01-09T08:07:42.073Z,94451.03
2023-01-09T08:10:11.973Z,94444.09
2023-01-09T08:12:44.505Z,94432.38
2023-01-09T08:15:12.813Z,94435.25
2023-01-09T08:17:43.075Z,94436.66
2023-01-09T08:20:12.174Z,94444.63
2023-01-09T08:22:40.505Z,94431.81
2023-01-09T08:25:11.954Z,94436.94
2023-01-09T08:27:41.969Z,94446.25
2023-01-09T08:30:10.863Z,94458.34
2023-01-09T08:32:38.611Z,94454.63
2023-01-09T08:35:07.474Z,94457.13
2023-01-09T08:37:35.519Z,94462.56
2023-01-09T08:40:03.470Z,94460.84
2023-01-09T08:42:48.707Z,94452.00
2023-01-09T08:45:35.140Z,94442.19
2023-01-09T08:48:02.816Z,94440.56
2023-01-09T08:50:30.480Z,94444.25
2023-01-09T08:52:58.450Z,94446.78
2023-01-09T08:55:26.431Z,94446.13
2023-01-09T08:57:55.664Z,94450.66
2023-01-09T09:00:25.968Z,94450.75
2023-01-09T09:02:55.065Z,94454.28
2023-01-09T09:05:24.401Z,94463.47
2023-01-09T09:07:53.915Z,94465.63
2023-01-09T09:10:23.451Z,94457.41
2023-01-09T09:12:52.499Z,94456.75
2023-01-09T09:15:24.308Z,94452.28
2023-01-09T09:17:55.195Z,94454.00
2023-01-09T09:20:23.383Z,94446.88
2023-01-09T09:22:51.461Z,94459.03
2023-01-09T09:25:20.173Z,94454.53
2023-01-09T09:27:48.372Z,94459.69
2023-01-09T09:30:19.030Z,94452.09
2023-01-09T09:32:47.473Z,94466.16
2023-01-09T09:35:19.142Z,94463.44
2023-01-09T09:37:54.313Z,94464.69
2023-01-09T09:40:44.487Z,94463.22
2023-01-09T09:43:58.330Z,94472.88
2023-01-09T09:46:38.738Z,94468.19
2023-01-09T09:49:14.261Z,94466.47
2023-01-09T09:51:56.949Z,94461.91
2023-01-09T09:54:28.471Z,94474.88
2023-01-09T09:56:59.055Z,94469.03
2023-01-09T09:59:30.977Z,94472.63
2023-01-09T10:02:01.479Z,94465.22
2023-01-09T10:04:33.452Z,94464.19
2023-01-09T10:07:06.116Z,94464.31
2023-01-09T10:09:46.874Z,94455.56
2023-01-09T10:12:27.097Z,94453.44
2023-01-09T10:14:55.999Z,94444.66
2023-01-09T10:17:44.482Z,94441.94
2023-01-09T10:20:38.553Z,94444.59
2023-01-09T10:23:21.360Z,94439.72
2023-01-09T10:25:57.331Z,94443.94
2023-01-09T10:28:49.786Z,94435.69
2023-01-09T10:31:23.309Z,94432.47
2023-01-09T10:33:59.169Z,94446.78
2023-01-09T10:37:05.596Z,94434.69
2023-01-09T10:39:40.985Z,94420.97
2023-01-09T10:42:21.494Z,94428.94
2023-01-09T10:44:55.256Z,94425.88
2023-01-09T10:47:27.026Z,94438.38
2023-01-09T10:49:56.863Z,94449.59
2023-01-09T10:52:31.046Z,94424.47
2023-01-09T10:55:05.000Z,94435.69
2023-01-09T10:57:42.401Z,94430.63
2023-01-09T11:00:18.115Z,94436.75
2023-01-09T11:05:36.757Z,94421.28
2023-01-09T11:08:12.874Z,94411.63
2023-01-09T11:10:50.567Z,94421.50
2023-01-09T11:13:22.501Z,94415.66
2023-01-09T11:16:05.788Z,94417.69
2023-01-09T11:18:34.783Z,94403.88
2023-01-09T11:21:29.213Z,94414.34
2023-01-09T11:23:58.792Z,94411.53
2023-01-09T11:26:29.505Z,94412.44
2023-01-09T11:29:08.922Z,94403.94
2023-01-09T11:31:36.830Z,94401.34
2023-01-09T11:34:05.380Z,94401.78
2023-01-09T11:36:33.387Z,94394.53
2023-01-09T11:39:02.694Z,94401.34
2023-01-09T11:41:34.856Z,94391.25
2023-01-09T11:44:05.233Z,94407.16
2023-01-09T11:46:38.452Z,94406.91
2023-01-09T11:49:22.603Z,94418.59
2023-01-09T11:52:14.591Z,94418.72
2023-01-09T11:54:46.343Z,94425.53
2023-01-09T11:57:15.448Z,94418.50
2023-01-09T11:59:43.494Z,94428.25
2023-01-09T12:02:39.563Z,94426.69
2023-01-09T12:05:17.572Z,94434.38
2023-01-09T12:08:02.983Z,94429.59
2023-01-09T12:10:45.959Z,94443.38
2023-01-09T12:13:30.733Z,94439.38
2023-01-09T12:16:06.481Z,94444.88
2023-01-09T12:18:51.043Z,94446.50
2023-01-09T12:21:32.188Z,94445.66
2023-01-09T12:24:45.193Z,94436.59
2023-01-09T12:27:25.146Z,94430.97
2023-01-09T12:30:19.825Z,94431.13
2023-01-09T12:33:01.626Z,94423.53
2023-01-09T12:35:36.904Z,94428.09
2023-01-09T12:38:21.723Z,94437.31
2023-01-09T12:41:24.940Z,94436.56
2023-01-09T12:44:27.361Z,94426.84
2023-01-09T12:47:15.787Z,94437.94
2023-01-09T12:49:53.168Z,94441.31
2023-01-09T12:52:26.285Z,94440.94
2023-01-09T12:54:58.264Z,94449.63
2023-01-09T12:57:31.563Z,94437.75
2023-01-09T13:00:03.826Z,94442.16
2023-01-09T13:02:37.488Z,94432.53
2023-01-09T13:05:11.832Z,94424.22
2023-01-09T13:07:43.336Z,94417.16
2023-01-09T13:10:23.433Z,94413.50
2023-01-09T13:12:52.481Z,94413.88
2023-01-09T13:15:28.772Z,94409.63
2023-01-09T13:18:05.111Z,94414.31
2023-01-09T13:20:39.007Z,94412.31
2023-01-09T13:23:07.918Z,94411.47
2023-01-09T13:25:43.343Z,94405.59
2023-01-09T13:28:18.754Z,94414.53
2023-01-09T13:31:20.796Z,94421.19
2023-01-09T13:33:52.947Z,94434.38
2023-01-09T13:36:27.573Z,94419.84
2023-01-09T13:38:57.517Z,94413.19
2023-01-09T13:41:45.860Z,94403.69
2023-01-09T13:44:28.588Z,94419.44
2023-01-09T13:46:58.955Z,94407.97
2023-01-09T13:50:15.119Z,94417.22
2023-01-09T13:52:45.176Z,94418.78
2023-01-09T13:55:36.259Z,94428.88
2023-01-09T13:58:25.251Z,94417.13
2023-01-09T14:00:59.053Z,94439.97
2023-01-09T14:03:32.629Z,94436.94
2023-01-09T14:06:12.806Z,94445.53
2023-01-09T14:08:42.937Z,94444.78
2023-01-09T14:11:19.729Z,94449.19
2023-01-09T14:13:53.085Z,94451.94
2023-01-09T14:16:24.874Z,94455.97
2023-01-09T14:18:54.571Z,94448.09
2023-01-09T14:21:22.756Z,94455.44
2023-01-09T14:24:01.273Z,94439.06
2023-01-09T14:26:45.280Z,94437.13
2023-01-09T14:29:43.535Z,94435.78
2023-01-09T14:32:46.342Z,94440.19
2023-01-09T14:35:21.009Z,94442.81
2023-01-09T14:38:00.679Z,94444.91
2023-01-09T14:40:31.753Z,94459.38
2023-01-09T14:43:09.505Z,94461.69
2023-01-09T14:45:40.345Z,94461.59
2023-01-09T14:48:13.059Z,94455.88
2023-01-09T14:50:45.913Z,94474.28
2023-01-09T14:53:18.094Z,94472.13
2023-01-09T14:55:52.588Z,94473.81
2023-01-09T14:58:24.738Z,94482.41
2023-01-09T15:00:58.227Z,94487.50
2023-01-09T15:03:29.251Z,94486.44
2023-01-09T15:05:58.331Z,94492.19
2023-01-09T15:08:28.731Z,94484.28
2023-01-09T15:11:00.227Z,94474.91
2023-01-09T15:13:32.389Z,94498.63
2023-01-09T15:16:01.824Z,94502.38
2023-01-09T15:18:33.179Z,94493.63
2023-01-09T15:21:04.131Z,94496.88
2023-01-09T15:23:32.416Z,94498.38
2023-01-09T15:26:23.947Z,94517.47
2023-01-09T15:28:53.127Z,94519.72
2023-01-09T15:31:24.949Z,94520.94
2023-01-09T15:33:54.101Z,94525.38
2023-01-09T15:36:25.966Z,94525.56
2023-01-09T15:38:55.066Z,94530.09
2023-01-09T15:41:45.761Z,94529.19
2023-01-09T15:44:17.342Z,94545.13
2023-01-09T15:46:50.293Z,94542.63
2023-01-09T15:49:19.017Z,94537.94
2023-01-09T15:51:48.371Z,94543.72
2023-01-09T15:54:18.050Z,94548.97
2023-01-09T15:56:48.068Z,94555.59
2023-01-09T15:59:27.134Z,94563.06
2023-01-09T16:02:15.888Z,94556.59
2023-01-09T16:04:43.698Z,94576.53
2023-01-09T16:07:16.059Z,94561.06
2023-01-09T16:09:47.470Z,94550.59
2023-01-09T16:12:21.234Z,94558.13
2023-01-09T16:14:52.574Z,94570.06
2023-01-09T16:17:23.864Z,94569.13
2023-01-09T16:19:53.792Z,94566.41
2023-01-09T16:22:24.435Z,94573.19
2023-01-09T16:24:54.417Z,94578.41
2023-01-09T16:27:26.610Z,94575.31
2023-01-09T16:29:57.950Z,94575.16
2023-01-09T16:32:29.693Z,94578.63
2023-01-09T16:34:59.960Z,94577.81
2023-01-09T16:37:29.009Z,94576.34
2023-01-09T16:40:32.029Z,94585.44
2023-01-09T16:43:01.370Z,94575.53
2023-01-09T16:45:31.988Z,94586.34
2023-01-09T16:48:00.529Z,94586.06
2023-01-09T16:50:28.383Z,94598.59
2023-01-09T16:52:57.224Z,94591.56
2023-01-09T16:55:24.869Z,94598.06
2023-01-09T16:57:52.600Z,94613.06
2023-01-09T17:00:22.550Z,94605.63
2023-01-09T17:02:50.574Z,94610.75
2023-01-09T17:05:18.220Z,94610.88
2023-01-09T17:07:46.736Z,94610.44
2023-01-09T17:10:21.203Z,94620.22
2023-01-09T17:12:49.724Z,94616.53
2023-01-09T17:15:17.864Z,94619.47
2023-01-09T17:17:48.034Z,94623.69
2023-01-09T17:20:18.013Z,94628.00
2023-01-09T17:22:46.488Z,94630.69
2023-01-09T17:25:33.462Z,94636.72
2023-01-09T17:28:19.552Z,94640.09
2023-01-09T17:30:47.360Z,94643.22
2023-01-09T17:33:19.639Z,94652.75
2023-01-09T17:35:47.431Z,94643.66
2023-01-09T17:38:16.315Z,94652.91
2023-01-09T17:40:45.116Z,94655.91
2023-01-09T17:43:13.282Z,94664.03
2023-01-09T17:45:42.492Z,94662.97
2023-01-09T17:48:20.869Z,94664.22
2023-01-09T17:50:49.921Z,94680.53
2023-01-09T17:53:20.936Z,94680.13
2023-01-09T17:55:48.986Z,94690.19
2023-01-09T17:58:25.867Z,94680.72
2023-01-09T18:00:53.828Z,94684.00
2023-01-09T18:03:24.351Z,94684.22
2023-01-09T18:05:52.360Z,94695.88
2023-01-09T18:08:20.903Z,94701.53
2023-01-09T18:10:49.108Z,94715.59
2023-01-09T18:13:18.028Z,94704.47
2023-01-09T18:15:46.441Z,94718.78
2023-01-09T18:18:16.946Z,94732.31
2023-01-09T18:20:46.474Z,94724.66
2023-01-09T18:23:16.734Z,94728.06
2023-01-09T18:25:44.607Z,94737.97
2023-01-09T18:28:15.456Z,94744.06
2023-01-09T18:30:45.105Z,94749.47
2023-01-09T18:33:14.059Z,94757.88
2023-01-09T18:35:41.964Z,94764.03
2023-01-09T18:38:12.206Z,94765.31
2023-01-09T18:40:41.579Z,94772.19
2023-01-09T18:43:11.607Z,94776.09
2023-01-09T18:45:39.832Z,94773.47
2023-01-09T18:48:08.441Z,94773.53
2023-01-09T18:50:36.071Z,94774.16
2023-01-09T18:53:04.085Z,94788.50
2023-01-09T18:55:33.499Z,94794.09
2023-01-09T18:58:01.290Z,94801.28
2023-01-09T19:00:29.210Z,94800.16
2023-01-09T19:02:56.954Z,94805.84
2023-01-09T19:05:25.689Z,94811.53
2023-01-09T19:07:54.022Z,94813.31
2023-01-09T19:10:22.063Z,94818.88
2023-01-09T19:12:51.038Z,94824.94
2023-01-09T19:15:19.064Z,94820.56
2023-01-09T19:17:46.904Z,94831.03
2023-01-09T19:20:14.889Z,94822.91
2023-01-09T19:22:42.561Z,94835.41
2023-01-09T19:25:12.412Z,94842.47
2023-01-09T19:27:40.089Z,94827.09
2023-01-09T19:30:11.272Z,94836.44
2023-01-09T19:32:40.552Z,94830.75
2023-01-09T19:35:08.940Z,94836.94
2023-01-09T19:37:37.233Z,94844.25
2023-01-09T19:40:05.881Z,94843.09
2023-01-09T19:42:33.541Z,94851.94
2023-01-09T19:45:01.200Z,94866.94
2023-01-09T19:47:35.425Z,94852.41
2023-01-09T19:50:04.982Z,94869.47
2023-01-09T19:52:33.088Z,94872.53
2023-01-09T19:55:00.927Z,94878.03
2023-01-09T19:57:28.576Z,94882.97
2023-01-09T19:59:56.605Z,94880.31
2023-01-09T20:02:24.449Z,94885.84
2023-01-09T20:04:53.461Z,94881.66
2023-01-09T20:07:21.256Z,94877.66
2023-01-09T20:09:49.836Z,94887.47
2023-01-09T20:12:17.469Z,94888.44
2023-01-09T20:14:45.260Z,94887.81
2023-01-09T20:17:12.940Z,94889.47
2023-01-09T20:19:40.594Z,94893.53
2023-01-09T20:22:09.888Z,94893.69
2023-01-09T20:24:39.008Z,94895.50
2023-01-09T20:27:06.961Z,94902.00
2023-01-09T20:29:34.929Z,94902.19
2023-01-09T20:32:05.514Z,94904.63
2023-01-09T20:34:33.736Z,94903.16
2023-01-09T20:37:01.537Z,94899.94
2023-01-09T20:39:31.008Z,94905.16
2023-01-09T20:41:58.690Z,94908.75
2023-01-09T20:44:26.392Z,94908.09
2023-01-09T20:46:54.017Z,94914.63
2023-01-09T20:49:22.383Z,94911.06
2023-01-09T20:51:52.259Z,94910.09
2023-01-09T20:54:22.224Z,94906.34
2023-01-09T20:56:53.627Z,94906.66
2023-01-09T20:59:22.249Z,94918.75
2023-01-09T21:01:50.392Z,94914.34
2023-01-09T21:04:19.511Z,94909.13
2023-01-09T21:06:49.755Z,94915.78
2023-01-09T21:09:17.786Z,94920.22
2023-01-09T21:11:45.471Z,94932.97
2023-01-09T21:14:14.980Z,94939.63
2023-01-09T21:16:45.460Z,94942.09
2023-01-09T21:19:19.539Z,94944.53
2023-01-09T21:21:47.350Z,94958.41
2023-01-09T21:24:14.993Z,94952.38
2023-01-09T21:26:43.374Z,94959.53
2023-01-09T21:29:15.482Z,94972.09
2023-01-09T21:31:44.361Z,94962.66
2023-01-09T21:34:14.563Z,94965.91
2023-01-09T21:36:45.307Z,94969.34
2023-01-09T21:39:13.004Z,94972.59
2023-01-09T21:41:58.575Z,94969.53
2023-01-09T21:44:45.421Z,94980.25
2023-01-09T21:47:13.081Z,94972.09
2023-01-09T21:49:41.743Z,94980.13
2023-01-09T21:52:10.825Z,94976.28
2023-01-09T21:54:38.587Z,94985.09
2023-01-09T21:57:06.537Z,94977.81
2023-01-09T21:59:35.565Z,94992.34
2023-01-09T22:02:03.277Z,95002.13
2023-01-09T22:04:32.329Z,95004.09
2023-01-09T22:07:00.293Z,95010.97
2023-01-09T22:09:28.287Z,95017.78
2023-01-09T22:11:57.828Z,95018.63
2023-01-09T22:14:25.519Z,95023.22
2023-01-09T22:16:55.527Z,95027.31
2023-01-09T22:19:23.191Z,95040.53
2023-01-09T22:21:51.219Z,95054.59
2023-01-09T22:24:21.609Z,95060.28
2023-01-09T22:26:50.113Z,95066.50
2023-01-09T22:29:18.137Z,95069.47
2023-01-09T22:31:46.038Z,95070.75
2023-01-09T22:34:18.304Z,95069.47
2023-01-09T22:36:47.853Z,95062.59
2023-01-09T22:39:19.348Z,95078.88
2023-01-09T22:41:51.905Z,95086.25
2023-01-09T22:44:19.580Z,95089.38
2023-01-09T22:46:47.942Z,95090.66
2023-01-09T22:49:16.963Z,95078.88
2023-01-09T22:51:45.104Z,95091.03
2023-01-09T22:54:12.741Z,95095.78
2023-01-09T22:56:40.752Z,95094.63
2023-01-09T22:59:08.630Z,95094.31
2023-01-09T23:01:36.890Z,95097.53
2023-01-09T23:04:04.889Z,95107.19
2023-01-09T23:06:34.274Z,95100.00
2023-01-09T23:09:01.906Z,95106.38
2023-01-09T23:11:49.828Z,95099.19
2023-01-09T23:14:17.688Z,95105.03
2023-01-09T23:16:45.783Z,95100.13
2023-01-09T23:19:15.565Z,95106.03
2023-01-09T23:21:46.463Z,95106.72
2023-01-09T23:24:15.412Z,95113.75
2023-01-09T23:26:43.598Z,95114.88
2023-01-09T23:29:12.376Z,95121.06
2023-01-09T23:31:40.166Z,95129.09
2023-01-09T23:34:08.267Z,95119.13
2023-01-09T23:36:36.144Z,95120.47
2023-01-09T23:39:08.857Z,95121.72
2023-01-09T23:41:54.679Z,95127.97
2023-01-09T23:44:22.574Z,95126.34
2023-01-09T23:46:50.283Z,95124.38
2023-01-09T23:49:18.248Z,95136.00
2023-01-09T23:51:46.740Z,95140.72
2023-01-09T23:54:16.259Z,95137.44
2023-01-09T23:56:44.215Z,95143.34
2023-01-09T23:59:13.797Z,95138.44
